Time;durP1;ratioP1;P1;durP2;ratioP2;P2;SDS_P1;SDS_P2;PMS_P1;PMS_P2;Temp;Humidity;BMP_temperature;BMP_pressure;BME280_temperature;BME280_humidity;BME280_pressure;Samples;Min_cycle;Max_cycle;Signal;HPM_P1;HPM_P2
2022/05/08 00:01:12;;;;;;;19.00;8.88;;;;;;;;;;5072906;27;95490;-73
2022/05/08 00:03:39;;;;;;;21.58;9.20;;;;;;;;;;5072073;27;96841;-72
2022/05/08 00:06:10;;;;;;;16.88;8.63;;;;;;;;;;5071612;27;97369;-73
2022/05/08 00:08:38;;;;;;;20.13;8.93;;;;;;;;;;5072129;27;95868;-73
2022/05/08 00:11:05;;;;;;;18.42;8.57;;;;;;;;;;5073008;27;96639;-73
2022/05/08 00:13:31;;;;;;;20.52;8.38;;;;;;;;;;5070521;27;97354;-73
2022/05/08 00:15:59;;;;;;;16.80;8.80;;;;;;;;;;5071240;27;95272;-73
2022/05/08 00:18:26;;;;;;;19.10;8.63;;;;;;;;;;5075435;27;97143;-73
2022/05/08 00:20:52;;;;;;;18.65;8.88;;;;;;;;;;5072625;27;95394;-73
2022/05/08 00:23:19;;;;;;;21.58;8.77;;;;;;;;;;5074112;27;97176;-73
2022/05/08 00:25:45;;;;;;;20.63;8.65;;;;;;;;;;5073445;27;97342;-73
2022/05/08 00:28:11;;;;;;;17.98;8.52;;;;;;;;;;5075975;27;95334;-73
2022/05/08 00:30:38;;;;;;;19.88;8.40;;;;;;;;;;5075476;27;96754;-73
2022/05/08 00:33:05;;;;;;;24.15;7.88;;;;;;;;;;5075219;27;97487;-73
2022/05/08 00:35:31;;;;;;;26.73;8.65;;;;;;;;;;5076040;27;95306;-73
2022/05/08 00:37:57;;;;;;;20.30;8.68;;;;;;;;;;5075371;27;95316;-74
2022/05/08 00:40:24;;;;;;;19.85;8.43;;;;;;;;;;5077995;27;97285;-74
2022/05/08 00:42:53;;;;;;;19.67;8.50;;;;;;;;;;5075088;27;96196;-73
2022/05/08 00:45:19;;;;;;;19.85;7.93;;;;;;;;;;5075241;27;97018;-74
2022/05/08 00:47:46;;;;;;;28.17;9.25;;;;;;;;;;5075996;27;95329;-73
2022/05/08 00:50:13;;;;;;;18.70;7.65;;;;;;;;;;5073740;27;97131;-73
2022/05/08 00:52:40;;;;;;;24.33;8.57;;;;;;;;;;5073936;27;97386;-73
2022/05/08 00:55:06;;;;;;;21.13;8.10;;;;;;;;;;5075400;27;95400;-73
2022/05/08 00:57:35;;;;;;;21.05;8.02;;;;;;;;;;5075513;27;95785;-74
2022/05/08 01:00:04;;;;;;;16.75;7.78;;;;;;;;;;5071943;27;97338;-73
2022/05/08 01:02:31;;;;;;;20.42;7.78;;;;;;;;;;5077252;27;95359;-73
2022/05/08 01:04:58;;;;;;;19.52;7.65;;;;;;;;;;5074934;27;96156;-73
2022/05/08 01:07:26;;;;;;;30.58;8.55;;;;;;;;;;5074984;27;95397;-73
2022/05/08 01:09:53;;;;;;;22.63;7.63;;;;;;;;;;5075783;27;97123;-73
2022/05/08 01:12:21;;;;;;;23.88;7.63;;;;;;;;;;5074204;27;97349;-73
2022/05/08 01:15:07;;;;;;;23.83;7.60;;;;;;;;;;5075733;27;95108;-73
2022/05/08 01:17:34;;;;;;;21.95;7.28;;;;;;;;;;5061432;27;97541;-73
2022/05/08 01:20:00;;;;;;;18.67;7.38;;;;;;;;;;5073667;27;97278;-74
2022/05/08 01:22:28;;;;;;;23.85;6.95;;;;;;;;;;5054618;27;95395;-73
2022/05/08 01:24:55;;;;;;;20.83;7.22;;;;;;;;;;5058147;27;96856;-73
2022/05/08 01:27:21;;;;;;;20.05;6.95;;;;;;;;;;5054282;27;95315;-73
2022/05/08 01:29:48;;;;;;;20.73;7.88;;;;;;;;;;5055070;27;96880;-74
2022/05/08 01:32:14;;;;;;;21.63;7.10;;;;;;;;;;5054310;27;97473;-73
2022/05/08 01:34:41;;;;;;;25.52;7.78;;;;;;;;;;5068248;27;95326;-73
2022/05/08 01:37:07;;;;;;;23.17;6.68;;;;;;;;;;5075022;27;97189;-72
2022/05/08 01:39:33;;;;;;;23.83;6.68;;;;;;;;;;5074796;27;97641;-73
2022/05/08 01:42:02;;;;;;;24.85;6.55;;;;;;;;;;5074210;27;95318;-74
2022/05/08 01:44:29;;;;;;;30.00;6.15;;;;;;;;;;5074819;27;96905;-72
2022/05/08 01:49:41;;;;;;;24.05;6.30;;;;;;;;;;5074521;27;96736;-73
2022/05/08 01:52:08;;;;;;;27.05;6.00;;;;;;;;;;5071904;27;97502;-73
2022/05/08 01:54:35;;;;;;;25.10;5.35;;;;;;;;;;5074340;27;95322;-73
2022/05/08 01:57:01;;;;;;;27.33;5.15;;;;;;;;;;5074590;27;96059;-73
2022/05/08 01:59:28;;;;;;;26.05;4.85;;;;;;;;;;5074363;27;97662;-73
2022/05/08 02:01:54;;;;;;;25.65;4.68;;;;;;;;;;5074073;27;95746;-73
2022/05/08 02:04:21;;;;;;;20.33;4.70;;;;;;;;;;5074708;27;96839;-73
2022/05/08 02:06:49;;;;;;;27.17;4.60;;;;;;;;;;5076889;27;97372;-73
2022/05/08 02:09:16;;;;;;;22.00;5.10;;;;;;;;;;5074097;27;96885;-72
2022/05/08 02:11:43;;;;;;;21.23;3.70;;;;;;;;;;5073859;27;96218;-73
2022/05/08 02:14:09;;;;;;;25.48;4.43;;;;;;;;;;5075101;27;95383;-72
2022/05/08 02:16:36;;;;;;;23.05;4.82;;;;;;;;;;5073890;27;96858;-72
2022/05/08 02:19:02;;;;;;;25.00;4.90;;;;;;;;;;5074352;27;97361;-72
2022/05/08 02:21:29;;;;;;;20.27;4.57;;;;;;;;;;5072334;27;95362;-72
2022/05/08 02:23:55;;;;;;;24.25;4.65;;;;;;;;;;5074126;27;96885;-72
2022/05/08 02:26:21;;;;;;;22.85;3.95;;;;;;;;;;5073797;27;97817;-73
2022/05/08 02:28:48;;;;;;;23.48;3.78;;;;;;;;;;5076241;27;95487;-73
2022/05/08 02:31:15;;;;;;;23.10;3.88;;;;;;;;;;5073142;27;97442;-73
2022/05/08 02:33:44;;;;;;;30.05;4.78;;;;;;;;;;5074331;27;95162;-72
2022/05/08 02:36:10;;;;;;;20.13;4.13;;;;;;;;;;5072535;27;96827;-73
2022/05/08 02:38:38;;;;;;;24.33;4.32;;;;;;;;;;5073681;27;96443;-73
2022/05/08 02:41:04;;;;;;;25.35;4.38;;;;;;;;;;5074130;27;95388;-73
2022/05/08 02:43:31;;;;;;;26.63;5.07;;;;;;;;;;5073260;27;96736;-73
2022/05/08 02:45:59;;;;;;;22.90;3.67;;;;;;;;;;5072878;27;97361;-72
2022/05/08 02:48:27;;;;;;;22.25;4.72;;;;;;;;;;5072554;27;95245;-73
2022/05/08 02:50:53;;;;;;;24.25;4.45;;;;;;;;;;5075251;27;97154;-73
2022/05/08 02:53:20;;;;;;;22.70;4.97;;;;;;;;;;5073321;27;95435;-73
2022/05/08 02:58:34;;;;;;;24.45;4.00;;;;;;;;;;5073094;27;97306;-73
2022/05/08 03:01:05;;;;;;;21.63;4.93;;;;;;;;;;5072487;27;96704;-72
2022/05/08 03:03:31;;;;;;;29.83;4.57;;;;;;;;;;5073497;27;96978;-73
2022/05/08 03:05:58;;;;;;;21.83;5.20;;;;;;;;;;5073191;27;97505;-72
2022/05/08 03:08:24;;;;;;;24.35;3.85;;;;;;;;;;5071988;27;95302;-73
2022/05/08 03:13:36;;;;;;;20.92;4.28;;;;;;;;;;5075701;27;97345;-72
2022/05/08 03:16:03;;;;;;;18.73;4.05;;;;;;;;;;5073616;27;97927;-73
2022/05/08 03:18:30;;;;;;;20.38;3.90;;;;;;;;;;5072674;27;95938;-73
2022/05/08 03:20:56;;;;;;;25.55;5.25;;;;;;;;;;5073260;27;95387;-73
2022/05/08 03:23:23;;;;;;;25.85;5.05;;;;;;;;;;5070719;27;96728;-72
2022/05/08 03:25:50;;;;;;;20.88;5.43;;;;;;;;;;5071495;27;97764;-72
2022/05/08 03:28:16;;;;;;;26.38;4.45;;;;;;;;;;5074044;27;95357;-72
2022/05/08 03:30:43;;;;;;;24.50;4.35;;;;;;;;;;5073508;27;96814;-72
2022/05/08 03:33:10;;;;;;;20.77;4.10;;;;;;;;;;5072240;27;97169;-74
2022/05/08 03:35:37;;;;;;;22.15;4.30;;;;;;;;;;5076001;27;95340;-72
2022/05/08 03:38:04;;;;;;;26.70;4.85;;;;;;;;;;5072139;27;97393;-73
2022/05/08 03:40:31;;;;;;;25.70;6.03;;;;;;;;;;5072751;27;95741;-73
2022/05/08 03:42:58;;;;;;;19.58;4.03;;;;;;;;;;5072966;27;96908;-73
2022/05/08 03:45:24;;;;;;;20.63;4.00;;;;;;;;;;5072813;27;97743;-74
2022/05/08 03:47:52;;;;;;;24.10;4.57;;;;;;;;;;5072564;27;95372;-73
2022/05/08 03:50:19;;;;;;;20.05;4.15;;;;;;;;;;5072885;27;96940;-74
2022/05/08 03:52:46;;;;;;;18.80;3.95;;;;;;;;;;5071735;27;97545;-74
2022/05/08 03:55:15;;;;;;;18.42;4.60;;;;;;;;;;5052266;27;95190;-74
2022/05/08 03:57:42;;;;;;;20.95;4.20;;;;;;;;;;5057090;27;96894;-74
2022/05/08 04:00:09;;;;;;;23.15;4.57;;;;;;;;;;5055949;27;95264;-73
2022/05/08 04:02:36;;;;;;;21.25;4.43;;;;;;;;;;5055399;27;96135;-73
2022/05/08 04:05:03;;;;;;;21.77;4.72;;;;;;;;;;5074628;27;97500;-73
2022/05/08 04:07:30;;;;;;;20.83;4.43;;;;;;;;;;5073491;27;95369;-73
2022/05/08 04:09:56;;;;;;;27.90;4.50;;;;;;;;;;5076229;27;97223;-74
2022/05/08 04:12:24;;;;;;;30.60;4.85;;;;;;;;;;5075593;27;97638;-73
2022/05/08 04:14:50;;;;;;;21.40;4.70;;;;;;;;;;5075911;27;95263;-73
2022/05/08 04:17:16;;;;;;;24.58;5.28;;;;;;;;;;5077983;27;96821;-73
2022/05/08 04:19:43;;;;;;;25.05;5.18;;;;;;;;;;5076424;27;95372;-72
2022/05/08 04:24:54;;;;;;;31.48;5.28;;;;;;;;;;5075565;27;96204;-73
2022/05/08 04:27:20;;;;;;;29.60;5.55;;;;;;;;;;5076191;27;95090;-73
2022/05/08 04:29:47;;;;;;;22.63;4.82;;;;;;;;;;5074238;27;96788;-73
2022/05/08 04:32:13;;;;;;;20.08;4.75;;;;;;;;;;5076209;27;96606;-72
2022/05/08 04:34:40;;;;;;;25.98;5.20;;;;;;;;;;5075939;27;95321;-74
2022/05/08 04:37:06;;;;;;;26.33;5.97;;;;;;;;;;5074147;27;97175;-73
2022/05/08 04:39:33;;;;;;;20.42;4.78;;;;;;;;;;5077407;27;97322;-73
2022/05/08 04:41:59;;;;;;;19.73;4.63;;;;;;;;;;5055865;27;97014;-73
2022/05/08 04:44:26;;;;;;;20.65;5.05;;;;;;;;;;5061644;27;97292;-72
2022/05/08 04:46:52;;;;;;;22.95;4.63;;;;;;;;;;5075798;27;95368;-72
2022/05/08 19:51:39;;;;;;;13.30;3.53;;;;;;;;;;5021818;28;95629;-75
2022/05/08 19:54:06;;;;;;;15.25;2.78;;;;;;;;;;5007712;28;97366;-76
2022/05/08 19:56:32;;;;;;;14.20;2.75;;;;;;;;;;5007848;28;95444;-74
2022/05/08 19:58:58;;;;;;;8.30;2.78;;;;;;;;;;5008610;28;95490;-73
2022/05/08 20:01:25;;;;;;;11.57;2.40;;;;;;;;;;5007629;28;97339;-74
2022/05/08 20:03:51;;;;;;;8.32;2.58;;;;;;;;;;5008069;28;95237;-73
2022/05/08 20:06:20;;;;;;;9.82;2.70;;;;;;;;;;5007533;28;96831;-73
2022/05/08 20:08:49;;;;;;;12.45;3.00;;;;;;;;;;5008928;28;97222;-74
2022/05/08 20:11:16;;;;;;;9.80;3.22;;;;;;;;;;5008781;28;96379;-74
2022/05/08 20:13:43;;;;;;;10.07;3.03;;;;;;;;;;5008397;28;97112;-73
2022/05/08 20:16:09;;;;;;;15.05;3.00;;;;;;;;;;5008476;28;95568;-76
2022/05/08 20:18:35;;;;;;;11.63;3.15;;;;;;;;;;5007677;28;95941;-76
2022/05/08 20:23:49;;;;;;;7.15;2.63;;;;;;;;;;5008509;28;95307;-73
2022/05/08 20:26:15;;;;;;;10.40;2.72;;;;;;;;;;5007303;28;96826;-73
2022/05/08 20:28:42;;;;;;;12.18;2.90;;;;;;;;;;5007869;28;97316;-73
2022/05/08 20:31:11;;;;;;;10.70;2.58;;;;;;;;;;5008235;28;95395;-74
2022/05/08 20:33:39;;;;;;;15.30;3.08;;;;;;;;;;5010304;28;96895;-75
2022/05/08 20:36:08;;;;;;;13.10;2.83;;;;;;;;;;5008810;28;95499;-74
2022/05/08 20:38:34;;;;;;;12.43;2.95;;;;;;;;;;5009174;28;96818;-74
2022/05/08 20:41:01;;;;;;;11.25;2.58;;;;;;;;;;5005463;28;97443;-75
2022/05/08 20:43:27;;;;;;;16.40;3.50;;;;;;;;;;5007562;28;95093;-75
2022/05/08 20:45:54;;;;;;;12.77;2.72;;;;;;;;;;5008389;28;97038;-74
2022/05/08 20:48:20;;;;;;;7.80;2.80;;;;;;;;;;5007057;28;97767;-76
2022/05/08 20:50:46;;;;;;;11.95;2.47;;;;;;;;;;5014372;28;96847;-75
2022/05/08 20:53:13;;;;;;;12.65;2.83;;;;;;;;;;5028578;28;96707;-76
2022/05/08 20:55:39;;;;;;;11.05;2.70;;;;;;;;;;5019949;28;100425;-76
2022/05/08 20:58:05;;;;;;;11.18;3.05;;;;;;;;;;5008261;28;96573;-77
2022/05/08 21:00:32;;;;;;;9.98;2.88;;;;;;;;;;5005262;28;97201;-76
2022/05/08 21:02:58;;;;;;;14.27;2.40;;;;;;;;;;4994313;28;95375;-76
2022/05/08 21:08:10;;;;;;;8.30;2.72;;;;;;;;;;4989944;28;97312;-75
2022/05/08 21:10:37;;;;;;;14.70;3.28;;;;;;;;;;4993579;28;95560;-76
2022/05/08 21:13:04;;;;;;;11.00;2.67;;;;;;;;;;4994775;28;97112;-75
2022/05/08 21:15:30;;;;;;;12.48;2.90;;;;;;;;;;4994230;28;97308;-75
2022/05/08 21:17:58;;;;;;;6.90;2.40;;;;;;;;;;4996680;28;95402;-76
2022/05/08 21:20:25;;;;;;;7.10;2.63;;;;;;;;;;4993965;28;99031;-76
2022/05/08 21:22:51;;;;;;;13.75;3.03;;;;;;;;;;4993897;28;95477;-75
2022/05/08 21:25:17;;;;;;;8.82;2.75;;;;;;;;;;4993857;28;96609;-76
2022/05/08 21:27:44;;;;;;;13.52;3.00;;;;;;;;;;4995110;28;95812;-76
2022/05/08 21:30:10;;;;;;;15.32;3.03;;;;;;;;;;4994212;28;95473;-76
2022/05/08 21:32:38;;;;;;;13.00;3.13;;;;;;;;;;4993841;28;96805;-75
2022/05/08 21:35:04;;;;;;;12.30;3.17;;;;;;;;;;4992487;28;97772;-74
2022/05/08 21:37:31;;;;;;;9.85;3.10;;;;;;;;;;4992842;28;95305;-76
2022/05/08 21:39:57;;;;;;;13.85;3.10;;;;;;;;;;4997731;28;95003;-76
2022/05/08 21:42:24;;;;;;;14.10;3.00;;;;;;;;;;4994165;28;95318;-76
2022/05/08 21:44:50;;;;;;;9.18;2.75;;;;;;;;;;4994549;28;96747;-75
2022/05/08 21:47:16;;;;;;;15.35;3.28;;;;;;;;;;4994232;28;96296;-74
2022/05/08 21:49:44;;;;;;;11.98;2.80;;;;;;;;;;4994617;28;95316;-75
2022/05/08 21:52:14;;;;;;;14.40;3.42;;;;;;;;;;4994566;28;96932;-75
2022/05/08 21:54:40;;;;;;;11.30;2.95;;;;;;;;;;4994820;28;97627;-77
2022/05/08 21:57:07;;;;;;;9.13;2.70;;;;;;;;;;4994527;28;95337;-76
2022/05/08 21:59:33;;;;;;;17.20;3.30;;;;;;;;;;4994499;28;96937;-75
2022/05/08 22:01:59;;;;;;;8.20;2.53;;;;;;;;;;4996744;28;95357;-75
2022/05/08 22:04:26;;;;;;;11.20;3.10;;;;;;;;;;4993989;28;96728;-75
2022/05/08 22:06:52;;;;;;;11.13;3.83;;;;;;;;;;4994435;28;97309;-75
2022/05/08 22:09:18;;;;;;;10.57;2.83;;;;;;;;;;4994346;28;95328;-75
2022/05/08 22:11:45;;;;;;;10.38;2.92;;;;;;;;;;4993515;28;96771;-75
2022/05/08 22:14:11;;;;;;;12.73;3.40;;;;;;;;;;4993380;28;97265;-74
2022/05/08 22:16:37;;;;;;;7.32;3.20;;;;;;;;;;4992836;28;95269;-75
2022/05/08 22:19:19;;;;;;;15.18;4.25;;;;;;;;;;4994315;28;96092;-74
2022/05/08 22:21:46;;;;;;;17.02;3.17;;;;;;;;;;4997002;28;97440;-75
2022/05/08 22:24:12;;;;;;;14.15;3.33;;;;;;;;;;4994435;28;97200;-75
2022/05/08 22:26:41;;;;;;;15.52;3.35;;;;;;;;;;4993555;28;97399;-75
2022/05/08 22:29:07;;;;;;;10.25;2.90;;;;;;;;;;4994106;28;95296;-73
2022/05/08 22:31:34;;;;;;;12.75;3.15;;;;;;;;;;4993418;28;97473;-75
2022/05/08 22:34:00;;;;;;;7.85;2.92;;;;;;;;;;4974056;28;97312;-74
2022/05/08 22:36:26;;;;;;;12.05;3.33;;;;;;;;;;4974153;28;95351;-74
2022/05/08 22:38:52;;;;;;;8.80;3.60;;;;;;;;;;4974482;28;96750;-74
2022/05/08 22:41:19;;;;;;;11.85;2.97;;;;;;;;;;4972904;28;98184;-74
2022/05/08 22:43:45;;;;;;;19.13;3.30;;;;;;;;;;4994697;28;95310;-74
2022/05/08 22:46:11;;;;;;;14.88;3.05;;;;;;;;;;4993258;28;97677;-75
2022/05/08 22:48:38;;;;;;;10.35;2.97;;;;;;;;;;4994008;28;95358;-75
2022/05/08 22:51:04;;;;;;;12.02;2.92;;;;;;;;;;4993205;28;96982;-74
2022/05/08 22:53:30;;;;;;;12.95;3.35;;;;;;;;;;4992503;28;97304;-75
2022/05/08 22:55:57;;;;;;;12.65;3.72;;;;;;;;;;4993826;28;95418;-73
2022/05/08 22:58:23;;;;;;;11.77;2.78;;;;;;;;;;4993855;28;95670;-74
2022/05/08 23:00:49;;;;;;;13.60;3.38;;;;;;;;;;4993128;28;97421;-75
2022/05/08 23:03:16;;;;;;;15.25;3.03;;;;;;;;;;4993148;28;95171;-75
2022/05/08 23:05:42;;;;;;;9.63;3.15;;;;;;;;;;4996599;28;97051;-75
2022/05/08 23:08:08;;;;;;;11.65;3.15;;;;;;;;;;4993300;28;95434;-75
2022/05/08 23:10:34;;;;;;;12.95;3.30;;;;;;;;;;4993366;28;96643;-75
2022/05/08 23:13:01;;;;;;;14.52;3.22;;;;;;;;;;4993263;28;97134;-74
2022/05/08 23:15:27;;;;;;;11.20;3.28;;;;;;;;;;4992676;28;95498;-74
2022/05/08 23:17:58;;;;;;;10.25;3.10;;;;;;;;;;4993518;28;96669;-74
2022/05/08 23:20:29;;;;;;;12.02;3.25;;;;;;;;;;4993130;28;97297;-74
2022/05/08 23:22:55;;;;;;;7.60;2.40;;;;;;;;;;4992517;28;95494;-74
2022/05/08 23:25:26;;;;;;;6.90;2.70;;;;;;;;;;4992526;28;96763;-75
2022/05/08 23:27:52;;;;;;;14.00;3.05;;;;;;;;;;4995954;28;96231;-74
2022/05/08 23:30:20;;;;;;;11.50;3.05;;;;;;;;;;4991518;28;97088;-74
2022/05/08 23:32:47;;;;;;;8.88;3.25;;;;;;;;;;4992992;28;97600;-75
2022/05/08 23:35:14;;;;;;;12.75;3.05;;;;;;;;;;4992582;28;95121;-75
2022/05/08 23:37:41;;;;;;;10.85;2.92;;;;;;;;;;4993064;28;96821;-74
2022/05/08 23:40:08;;;;;;;11.02;3.30;;;;;;;;;;4993125;28;97606;-74
2022/05/08 23:42:35;;;;;;;8.15;3.08;;;;;;;;;;4992733;28;96856;-73
2022/05/08 23:45:01;;;;;;;11.90;3.47;;;;;;;;;;4993150;28;96916;-74
2022/05/08 23:47:27;;;;;;;12.45;3.10;;;;;;;;;;4992461;28;97293;-73
2022/05/08 23:49:54;;;;;;;12.55;3.00;;;;;;;;;;4991972;28;95287;-74
2022/05/08 23:52:24;;;;;;;12.27;3.70;;;;;;;;;;4987814;28;100352;-74
2022/05/08 23:54:51;;;;;;;12.57;3.38;;;;;;;;;;4981588;28;95279;-74
2022/05/08 23:57:18;;;;;;;12.35;3.58;;;;;;;;;;4991328;28;96693;-73
2022/05/08 23:59:45;;;;;;;10.57;3.20;;;;;;;;;;4992235;28;97577;-74
